Time;durP1;ratioP1;P1;durP2;ratioP2;P2;SDS_P1;SDS_P2;PMS_P1;PMS_P2;Temp;Humidity;BMP_temperature;BMP_pressure;BME280_temperature;BME280_humidity;BME280_pressure;Samples;Min_cycle;Max_cycle;Signal;HPM_P1;HPM_P2
2021/12/30 00:02:03;;;;;;;49.53;14.93;;;;;;;;;;5014367;28;20408;-51
2021/12/30 00:04:29;;;;;;;35.20;16.23;;;;;;;;;;5012177;28;20490;-49
2021/12/30 00:06:55;;;;;;;41.03;16.50;;;;;;;;;;4996506;28;20412;-50
2021/12/30 00:09:21;;;;;;;38.67;15.67;;;;;;;;;;5014499;28;20764;-49
2021/12/30 00:11:47;;;;;;;33.40;14.43;;;;;;;;;;5014496;28;20782;-50
2021/12/30 00:14:13;;;;;;;38.93;14.87;;;;;;;;;;5014422;28;20922;-49
2021/12/30 00:16:39;;;;;;;30.83;14.67;;;;;;;;;;5013647;28;20537;-50
2021/12/30 00:19:05;;;;;;;37.53;14.70;;;;;;;;;;5014082;28;20416;-50
2021/12/30 00:21:31;;;;;;;39.67;16.20;;;;;;;;;;5014494;28;20436;-50
2021/12/30 00:23:57;;;;;;;37.60;15.90;;;;;;;;;;5014380;28;20424;-50
2021/12/30 00:26:23;;;;;;;35.30;15.33;;;;;;;;;;5014074;28;20905;-50
2021/12/30 00:28:49;;;;;;;44.43;14.90;;;;;;;;;;5014144;28;20425;-49
2021/12/30 00:31:15;;;;;;;38.93;13.63;;;;;;;;;;5014216;28;20922;-50
2021/12/30 00:33:42;;;;;;;25.40;13.00;;;;;;;;;;5014241;28;20460;-50
2021/12/30 00:36:09;;;;;;;37.53;12.90;;;;;;;;;;5014100;28;20899;-50
2021/12/30 00:38:36;;;;;;;36.70;14.47;;;;;;;;;;5013683;28;20775;-52
2021/12/30 00:41:02;;;;;;;29.43;12.43;;;;;;;;;;5014139;28;20519;-51
2021/12/30 00:43:28;;;;;;;29.27;13.43;;;;;;;;;;5014105;28;20435;-51
2021/12/30 00:45:54;;;;;;;25.47;13.20;;;;;;;;;;5013624;28;20888;-50
2021/12/30 00:48:21;;;;;;;39.40;10.37;;;;;;;;;;5013552;28;20541;-51
2021/12/30 00:50:47;;;;;;;28.23;10.03;;;;;;;;;;5013942;28;20781;-50
2021/12/30 00:53:14;;;;;;;38.53;10.33;;;;;;;;;;5013642;28;20430;-50
2021/12/30 00:55:40;;;;;;;21.17;10.23;;;;;;;;;;5013942;28;20485;-50
2021/12/30 00:58:06;;;;;;;23.50;10.40;;;;;;;;;;5013208;28;20463;-50
2021/12/30 01:00:33;;;;;;;41.77;9.40;;;;;;;;;;5014257;28;20472;-50
2021/12/30 01:03:00;;;;;;;29.53;10.40;;;;;;;;;;5013924;28;20454;-50
2021/12/30 01:05:26;;;;;;;24.83;8.43;;;;;;;;;;5013338;28;20403;-50
2021/12/30 01:07:52;;;;;;;18.87;8.10;;;;;;;;;;5013211;28;20797;-50
2021/12/30 01:10:20;;;;;;;28.20;7.50;;;;;;;;;;5013331;28;20461;-50
2021/12/30 01:12:47;;;;;;;19.30;8.67;;;;;;;;;;5013258;28;20439;-50
2021/12/30 01:15:14;;;;;;;20.43;8.10;;;;;;;;;;5013623;28;20492;-50
2021/12/30 01:17:59;;;;;;;29.07;7.63;;;;;;;;;;5012847;28;20517;-50
2021/12/30 01:20:25;;;;;;;31.80;9.30;;;;;;;;;;5013224;28;20436;-49
2021/12/30 01:22:52;;;;;;;29.47;8.40;;;;;;;;;;5013043;28;20499;-50
2021/12/30 01:25:18;;;;;;;26.83;7.13;;;;;;;;;;5013103;28;20772;-50
2021/12/30 01:27:45;;;;;;;32.77;7.90;;;;;;;;;;5012907;28;20927;-50
2021/12/30 01:30:13;;;;;;;18.03;7.37;;;;;;;;;;5012454;28;20408;-50
2021/12/30 01:32:39;;;;;;;20.60;8.40;;;;;;;;;;5013162;28;20411;-52
2021/12/30 01:35:10;;;;;;;21.90;7.73;;;;;;;;;;5013032;28;20435;-52
2021/12/30 01:37:36;;;;;;;19.40;6.80;;;;;;;;;;5012605;28;20466;-51
2021/12/30 01:40:03;;;;;;;20.23;7.10;;;;;;;;;;5012850;28;20419;-50
2021/12/30 01:42:32;;;;;;;28.00;7.20;;;;;;;;;;5012848;28;20416;-51
2021/12/30 01:44:58;;;;;;;23.67;5.60;;;;;;;;;;5012927;28;20401;-52
2021/12/30 01:47:24;;;;;;;21.07;6.60;;;;;;;;;;5012582;28;20970;-52
2021/12/30 01:49:51;;;;;;;32.23;7.30;;;;;;;;;;5013139;28;20823;-52
2021/12/30 01:52:17;;;;;;;28.77;7.17;;;;;;;;;;5012830;28;20458;-50
2021/12/30 01:54:44;;;;;;;21.83;6.70;;;;;;;;;;5012932;28;20420;-50
2021/12/30 01:57:09;;;;;;;20.93;6.47;;;;;;;;;;5012410;28;20983;-50
2021/12/30 01:59:35;;;;;;;20.07;6.37;;;;;;;;;;5012921;28;20435;-50
2021/12/30 02:02:03;;;;;;;20.83;6.33;;;;;;;;;;5012321;28;20399;-51
2021/12/30 02:04:34;;;;;;;25.43;8.10;;;;;;;;;;5012271;28;20415;-52
2021/12/30 02:07:00;;;;;;;19.80;6.30;;;;;;;;;;5012066;28;20438;-50
2021/12/30 02:09:28;;;;;;;19.93;6.07;;;;;;;;;;5012737;28;20491;-50
2021/12/30 02:11:55;;;;;;;23.70;7.10;;;;;;;;;;5012711;28;20426;-50
2021/12/30 02:14:21;;;;;;;26.10;7.30;;;;;;;;;;5012537;28;20412;-50
2021/12/30 02:16:48;;;;;;;22.70;6.00;;;;;;;;;;5012205;28;20542;-52
2021/12/30 02:22:17;;;;;;;35.50;7.80;;;;;;;;;;5012442;28;20774;-50
2021/12/30 02:24:47;;;;;;;23.60;6.43;;;;;;;;;;5012485;28;20405;-50
2021/12/30 02:27:15;;;;;;;16.70;6.37;;;;;;;;;;5013141;28;20478;-52
2021/12/30 02:29:41;;;;;;;20.03;6.63;;;;;;;;;;5012377;28;20464;-54
2021/12/30 02:32:08;;;;;;;28.50;7.10;;;;;;;;;;4994476;28;20412;-53
2021/12/30 02:34:34;;;;;;;24.93;6.47;;;;;;;;;;5012140;28;20417;-52
2021/12/30 02:37:00;;;;;;;24.80;6.40;;;;;;;;;;5011415;28;20506;-53
2021/12/30 02:39:26;;;;;;;17.60;6.40;;;;;;;;;;5011976;28;20402;-54
2021/12/30 02:41:52;;;;;;;29.07;7.60;;;;;;;;;;5014938;28;20432;-53
2021/12/30 02:44:18;;;;;;;26.30;6.13;;;;;;;;;;5015953;28;20444;-53
2021/12/30 02:46:44;;;;;;;22.83;6.57;;;;;;;;;;5015295;28;20418;-52
2021/12/30 02:49:10;;;;;;;25.83;6.60;;;;;;;;;;5015662;28;20503;-54
2021/12/30 02:51:36;;;;;;;29.67;6.80;;;;;;;;;;5016146;28;20408;-54
2021/12/30 02:54:03;;;;;;;20.87;5.60;;;;;;;;;;5015582;28;20486;-53
2021/12/30 02:56:30;;;;;;;23.80;6.13;;;;;;;;;;5015257;28;20455;-53
2021/12/30 02:58:56;;;;;;;21.57;6.10;;;;;;;;;;5015512;28;20419;-54
2021/12/30 03:01:23;;;;;;;21.47;6.07;;;;;;;;;;5015309;28;20894;-54
2021/12/30 03:03:49;;;;;;;15.10;5.90;;;;;;;;;;5015529;28;20407;-53
2021/12/30 03:06:16;;;;;;;21.40;5.47;;;;;;;;;;5015510;28;20396;-53
2021/12/30 03:08:42;;;;;;;21.93;6.30;;;;;;;;;;5015038;28;20428;-53
2021/12/30 03:11:08;;;;;;;30.80;7.23;;;;;;;;;;5015428;28;20409;-54
2021/12/30 03:13:35;;;;;;;21.90;6.40;;;;;;;;;;5015479;28;20435;-53
2021/12/30 03:16:04;;;;;;;17.73;5.33;;;;;;;;;;5015394;28;20457;-52
2021/12/30 03:18:31;;;;;;;18.00;5.63;;;;;;;;;;5014905;28;20430;-52
2021/12/30 03:20:57;;;;;;;23.83;7.10;;;;;;;;;;5015024;28;20488;-52
2021/12/30 03:23:23;;;;;;;18.70;5.87;;;;;;;;;;4997325;28;20409;-53
2021/12/30 03:25:49;;;;;;;21.30;7.03;;;;;;;;;;5015006;28;20414;-52
2021/12/30 03:28:15;;;;;;;14.40;5.70;;;;;;;;;;5014587;28;20971;-52
2021/12/30 03:30:41;;;;;;;20.90;6.37;;;;;;;;;;5014881;28;20452;-53
2021/12/30 03:33:07;;;;;;;25.13;6.97;;;;;;;;;;5014689;28;20436;-53
2021/12/30 03:35:33;;;;;;;21.07;6.33;;;;;;;;;;5014664;28;20451;-52
2021/12/30 03:37:59;;;;;;;16.63;6.33;;;;;;;;;;5014302;28;20520;-52
2021/12/30 03:40:25;;;;;;;23.67;6.03;;;;;;;;;;5014471;28;20425;-52
2021/12/30 03:42:51;;;;;;;26.97;7.90;;;;;;;;;;5014620;28;20407;-52
2021/12/30 03:45:17;;;;;;;24.47;7.10;;;;;;;;;;5014665;28;20402;-53
2021/12/30 03:47:46;;;;;;;15.70;6.63;;;;;;;;;;5014034;28;20430;-54
2021/12/30 03:50:18;;;;;;;23.47;6.50;;;;;;;;;;5014443;28;20465;-52
2021/12/30 03:52:44;;;;;;;24.70;7.20;;;;;;;;;;5013394;28;20439;-52
2021/12/30 03:55:10;;;;;;;28.50;6.40;;;;;;;;;;5014482;28;20404;-53
2021/12/30 03:57:36;;;;;;;17.47;7.13;;;;;;;;;;5013860;28;20460;-53
2021/12/30 04:00:04;;;;;;;15.57;6.63;;;;;;;;;;5014256;28;20786;-53
2021/12/30 04:02:30;;;;;;;22.53;7.50;;;;;;;;;;5014368;28;20401;-54
2021/12/30 04:04:56;;;;;;;15.43;6.73;;;;;;;;;;5014256;28;20495;-54
2021/12/30 04:07:22;;;;;;;28.73;6.93;;;;;;;;;;5013948;28;20430;-54
2021/12/30 04:09:48;;;;;;;20.30;6.23;;;;;;;;;;5014255;28;20475;-54
2021/12/30 04:12:13;;;;;;;26.10;7.37;;;;;;;;;;5014420;28;20894;-54
2021/12/30 04:14:39;;;;;;;18.93;7.33;;;;;;;;;;5013977;28;20551;-54
2021/12/30 04:17:06;;;;;;;18.40;5.53;;;;;;;;;;5013594;28;20475;-53
2021/12/30 04:19:32;;;;;;;24.40;6.77;;;;;;;;;;5013918;28;20935;-54
2021/12/30 04:21:58;;;;;;;23.33;7.03;;;;;;;;;;5014113;28;20461;-52
2021/12/30 04:24:24;;;;;;;22.07;7.80;;;;;;;;;;5014145;28;20914;-53
2021/12/30 04:26:51;;;;;;;22.20;7.13;;;;;;;;;;5013452;28;20415;-53
2021/12/30 04:29:18;;;;;;;18.93;7.80;;;;;;;;;;5013690;28;20923;-54
2021/12/30 04:31:44;;;;;;;22.33;7.80;;;;;;;;;;5013754;28;20403;-54
2021/12/30 04:34:11;;;;;;;25.07;7.27;;;;;;;;;;5013921;28;20409;-53
2021/12/30 04:36:37;;;;;;;16.67;7.77;;;;;;;;;;5013673;28;20481;-53
2021/12/30 04:39:03;;;;;;;17.07;7.77;;;;;;;;;;5013921;28;20439;-54
2021/12/30 04:41:29;;;;;;;22.73;10.03;;;;;;;;;;5013464;28;20460;-54
2021/12/30 04:43:55;;;;;;;14.47;8.33;;;;;;;;;;5013365;28;20483;-52
2021/12/30 04:46:21;;;;;;;16.27;7.90;;;;;;;;;;5013409;28;20843;-52
2021/12/30 04:48:49;;;;;;;17.70;8.57;;;;;;;;;;5013067;28;20429;-51
2021/12/30 04:51:16;;;;;;;16.20;7.80;;;;;;;;;;5013245;28;20409;-53
2021/12/30 04:53:42;;;;;;;19.10;9.03;;;;;;;;;;5013261;28;20411;-53
2021/12/30 04:56:08;;;;;;;19.00;8.20;;;;;;;;;;5013162;28;20420;-53
2021/12/30 04:58:34;;;;;;;14.77;8.77;;;;;;;;;;5012757;28;20434;-54
2021/12/30 05:01:00;;;;;;;19.20;7.20;;;;;;;;;;5013310;28;20406;-54
2021/12/30 05:03:26;;;;;;;12.43;6.20;;;;;;;;;;5012877;28;20401;-53
2021/12/30 05:05:53;;;;;;;14.03;5.03;;;;;;;;;;5013155;28;20406;-54
2021/12/30 05:08:20;;;;;;;11.03;5.03;;;;;;;;;;5012656;28;20430;-53
2021/12/30 05:10:46;;;;;;;14.57;4.77;;;;;;;;;;5012977;28;20404;-54
2021/12/30 05:13:13;;;;;;;6.73;3.27;;;;;;;;;;5012835;28;20916;-54
2021/12/30 05:15:39;;;;;;;7.17;3.27;;;;;;;;;;5013071;28;20436;-52
2021/12/30 05:18:06;;;;;;;4.03;2.70;;;;;;;;;;5012432;28;20930;-52
2021/12/30 05:20:32;;;;;;;7.77;3.10;;;;;;;;;;5012770;28;20471;-54
2021/12/30 05:22:58;;;;;;;3.00;2.60;;;;;;;;;;5012834;28;20919;-52
2021/12/30 05:25:24;;;;;;;3.37;2.37;;;;;;;;;;5012692;28;20409;-54
2021/12/30 05:27:51;;;;;;;3.53;2.40;;;;;;;;;;5012286;28;20460;-52
2021/12/30 05:30:17;;;;;;;2.40;2.20;;;;;;;;;;5012867;28;20475;-54
2021/12/30 05:32:43;;;;;;;3.10;2.33;;;;;;;;;;5012637;28;20440;-54
2021/12/30 05:35:10;;;;;;;2.80;2.00;;;;;;;;;;5012488;28;20496;-53
2021/12/30 05:37:36;;;;;;;2.20;1.90;;;;;;;;;;5012187;28;20460;-54
2021/12/30 05:40:03;;;;;;;2.53;2.00;;;;;;;;;;5012375;28;21040;-53
2021/12/30 05:42:29;;;;;;;2.33;2.03;;;;;;;;;;5012507;28;20487;-51
2021/12/30 05:44:55;;;;;;;1.90;1.80;;;;;;;;;;5012622;28;20548;-53
2021/12/30 05:47:21;;;;;;;2.33;2.00;;;;;;;;;;5012128;28;20425;-54
2021/12/30 05:49:48;;;;;;;2.60;2.20;;;;;;;;;;5012848;28;20506;-51
2021/12/30 05:52:14;;;;;;;4.37;2.20;;;;;;;;;;5013159;28;20399;-51
2021/12/30 05:54:41;;;;;;;1.97;1.77;;;;;;;;;;5012687;28;20409;-51
2021/12/30 05:57:07;;;;;;;2.07;1.97;;;;;;;;;;5012368;28;20472;-54
2021/12/30 05:59:33;;;;;;;5.40;2.37;;;;;;;;;;5013289;28;20943;-52
2021/12/30 06:01:59;;;;;;;2.87;2.57;;;;;;;;;;5013299;28;20417;-52
2021/12/30 06:04:25;;;;;;;3.70;2.50;;;;;;;;;;5013008;28;20434;-52
2021/12/30 06:06:51;;;;;;;2.30;2.10;;;;;;;;;;5012392;28;20500;-52
2021/12/30 06:09:17;;;;;;;2.00;1.90;;;;;;;;;;5012729;28;20751;-52
2021/12/30 06:11:43;;;;;;;2.10;1.90;;;;;;;;;;5012491;28;20463;-50
2021/12/30 06:14:09;;;;;;;2.37;2.17;;;;;;;;;;5012044;28;20405;-50
2021/12/30 06:16:35;;;;;;;2.90;2.60;;;;;;;;;;5017292;28;20563;-53
2021/12/30 06:19:01;;;;;;;3.20;2.57;;;;;;;;;;5018504;28;20568;-52
2021/12/30 06:21:27;;;;;;;4.50;2.77;;;;;;;;;;5019045;28;20397;-52
2021/12/30 06:23:53;;;;;;;3.03;2.10;;;;;;;;;;5018995;28;20767;-53
2021/12/30 06:26:19;;;;;;;4.07;3.10;;;;;;;;;;5018862;28;20502;-53
2021/12/30 06:28:45;;;;;;;3.83;3.50;;;;;;;;;;5018628;28;20439;-54
2021/12/30 06:31:11;;;;;;;3.33;3.03;;;;;;;;;;5018705;28;20412;-54
2021/12/30 06:33:37;;;;;;;4.30;3.83;;;;;;;;;;5018753;28;20512;-53
2021/12/30 06:36:04;;;;;;;4.47;3.20;;;;;;;;;;5018947;28;20905;-53
2021/12/30 06:38:30;;;;;;;3.30;3.00;;;;;;;;;;5018325;28;20463;-54
2021/12/30 06:40:56;;;;;;;8.07;4.20;;;;;;;;;;5018539;28;20477;-54
2021/12/30 06:43:22;;;;;;;4.47;3.60;;;;;;;;;;5018902;28;20486;-54
2021/12/30 06:45:48;;;;;;;5.60;3.17;;;;;;;;;;5018973;28;20401;-53
2021/12/30 06:48:15;;;;;;;4.47;3.33;;;;;;;;;;5018271;28;20431;-53
2021/12/30 06:50:41;;;;;;;7.53;3.93;;;;;;;;;;5018816;28;20816;-53
2021/12/30 06:53:07;;;;;;;7.50;3.40;;;;;;;;;;5018578;28;20401;-54
2021/12/30 06:55:33;;;;;;;6.20;3.67;;;;;;;;;;5018447;28;20409;-53
2021/12/30 06:57:59;;;;;;;7.40;4.60;;;;;;;;;;5018102;28;20619;-52
2021/12/30 07:00:25;;;;;;;9.50;4.70;;;;;;;;;;5018425;28;20971;-53
2021/12/30 07:02:51;;;;;;;11.30;5.17;;;;;;;;;;5018510;28;20500;-53
2021/12/30 07:05:17;;;;;;;6.73;5.07;;;;;;;;;;5018881;28;20489;-54
2021/12/30 07:07:44;;;;;;;11.30;5.30;;;;;;;;;;5017896;28;20427;-52
2021/12/30 07:10:10;;;;;;;8.20;4.83;;;;;;;;;;5018510;28;20402;-54
2021/12/30 07:12:37;;;;;;;9.40;5.00;;;;;;;;;;5018483;28;20415;-53
2021/12/30 07:15:04;;;;;;;8.43;5.07;;;;;;;;;;5018389;28;20418;-53
2021/12/30 07:17:31;;;;;;;9.20;5.40;;;;;;;;;;5017914;28;20461;-53
2021/12/30 07:19:57;;;;;;;10.23;6.90;;;;;;;;;;5018278;28;20441;-53
2021/12/30 07:22:24;;;;;;;8.50;5.60;;;;;;;;;;5018176;28;20435;-52
2021/12/30 07:24:49;;;;;;;6.70;4.87;;;;;;;;;;5018368;28;20402;-51
2021/12/30 07:27:15;;;;;;;6.63;4.33;;;;;;;;;;5016086;28;20478;-53
2021/12/30 07:29:41;;;;;;;8.73;4.50;;;;;;;;;;5015321;28;20413;-53
2021/12/30 07:32:07;;;;;;;7.33;4.87;;;;;;;;;;5015019;28;20415;-54
2021/12/30 07:34:33;;;;;;;5.37;4.40;;;;;;;;;;5015007;28;20746;-53
2021/12/30 07:36:59;;;;;;;7.77;4.80;;;;;;;;;;5014302;28;20461;-54
2021/12/30 07:39:25;;;;;;;4.00;3.70;;;;;;;;;;5014761;28;20406;-53
2021/12/30 07:41:51;;;;;;;4.33;3.50;;;;;;;;;;5014707;28;20480;-54
2021/12/30 07:44:17;;;;;;;4.37;3.70;;;;;;;;;;5014892;28;20489;-52
2021/12/30 07:46:43;;;;;;;6.00;3.27;;;;;;;;;;5014204;28;20897;-54
2021/12/30 07:49:09;;;;;;;4.73;3.63;;;;;;;;;;5014446;28;20402;-54
2021/12/30 07:51:35;;;;;;;3.53;3.23;;;;;;;;;;5013664;28;20423;-52
2021/12/30 07:54:01;;;;;;;6.20;4.47;;;;;;;;;;5014449;28;21037;-54
2021/12/30 07:56:27;;;;;;;3.63;3.30;;;;;;;;;;5014044;28;20494;-53
2021/12/30 07:58:53;;;;;;;6.47;3.30;;;;;;;;;;5014095;28;20435;-54
2021/12/30 08:01:19;;;;;;;4.37;3.70;;;;;;;;;;5014239;28;20488;-54
2021/12/30 08:03:45;;;;;;;3.90;3.50;;;;;;;;;;5014202;28;20813;-54
2021/12/30 08:06:11;;;;;;;5.60;3.87;;;;;;;;;;5014071;28;20413;-53
2021/12/30 08:08:37;;;;;;;5.00;3.90;;;;;;;;;;5011680;28;20926;-53
2021/12/30 08:11:03;;;;;;;4.37;3.37;;;;;;;;;;5013391;28;20495;-54
2021/12/30 08:13:29;;;;;;;4.30;3.00;;;;;;;;;;5013970;28;20405;-53
2021/12/30 08:15:55;;;;;;;4.03;3.20;;;;;;;;;;5010584;28;20480;-52
2021/12/30 08:18:21;;;;;;;4.30;3.30;;;;;;;;;;5013318;28;20466;-53
2021/12/30 08:20:47;;;;;;;5.10;3.87;;;;;;;;;;5013653;28;20457;-53
2021/12/30 08:23:13;;;;;;;3.90;3.23;;;;;;;;;;5013807;28;20413;-54
2021/12/30 08:25:39;;;;;;;4.50;3.40;;;;;;;;;;5011907;28;20568;-52
2021/12/30 08:28:05;;;;;;;5.87;4.10;;;;;;;;;;5014358;28;20997;-50
2021/12/30 08:30:31;;;;;;;3.90;2.90;;;;;;;;;;5013602;28;20764;-50
2021/12/30 08:32:57;;;;;;;3.37;2.90;;;;;;;;;;5013576;28;20406;-50
2021/12/30 08:35:23;;;;;;;3.80;3.23;;;;;;;;;;5013521;28;20412;-51
2021/12/30 08:37:51;;;;;;;5.47;3.53;;;;;;;;;;5012498;28;20467;-50
2021/12/30 08:40:17;;;;;;;7.20;3.73;;;;;;;;;;5013482;28;20455;-51
2021/12/30 08:42:44;;;;;;;4.10;3.13;;;;;;;;;;5013548;28;20405;-51
2021/12/30 08:45:10;;;;;;;6.20;4.37;;;;;;;;;;5013400;28;20508;-50
2021/12/30 08:47:36;;;;;;;4.83;2.80;;;;;;;;;;5012904;28;20508;-51
2021/12/30 08:50:04;;;;;;;6.37;3.70;;;;;;;;;;5013399;28;20407;-50
2021/12/30 08:52:30;;;;;;;8.33;3.97;;;;;;;;;;5013344;28;20468;-50
2021/12/30 08:54:59;;;;;;;5.00;4.50;;;;;;;;;;5013185;28;20503;-51
2021/12/30 08:57:25;;;;;;;5.63;3.90;;;;;;;;;;5012832;28;20465;-50
2021/12/30 08:59:51;;;;;;;6.67;4.77;;;;;;;;;;5013053;28;20887;-50
2021/12/30 09:02:17;;;;;;;4.63;3.77;;;;;;;;;;5013410;28;20815;-50
2021/12/30 09:04:46;;;;;;;5.00;4.50;;;;;;;;;;5013029;28;20407;-50
2021/12/30 09:07:12;;;;;;;4.03;3.63;;;;;;;;;;5012578;28;20857;-50
2021/12/30 09:09:38;;;;;;;5.80;3.80;;;;;;;;;;5013002;28;20924;-50
2021/12/30 09:12:04;;;;;;;4.10;3.70;;;;;;;;;;5013344;28;20406;-50
2021/12/30 09:14:30;;;;;;;5.07;3.73;;;;;;;;;;5012940;28;20440;-50
2021/12/30 09:16:56;;;;;;;3.40;3.10;;;;;;;;;;5012342;28;20480;-50
2021/12/30 09:19:22;;;;;;;6.93;3.53;;;;;;;;;;5012661;28;20441;-50
2021/12/30 09:21:48;;;;;;;6.20;3.60;;;;;;;;;;5011474;28;20410;-50
2021/12/30 09:24:14;;;;;;;3.60;3.30;;;;;;;;;;5011751;28;20505;-50
2021/12/30 09:26:40;;;;;;;5.40;3.80;;;;;;;;;;5008757;28;20430;-50
2021/12/30 09:29:10;;;;;;;3.77;3.33;;;;;;;;;;5011107;28;20432;-50
2021/12/30 09:31:37;;;;;;;3.43;3.13;;;;;;;;;;5011801;28;20452;-51
2021/12/30 09:34:03;;;;;;;4.10;2.83;;;;;;;;;;5010877;28;20409;-51
2021/12/30 09:36:30;;;;;;;3.10;2.80;;;;;;;;;;5012376;28;20586;-50
2021/12/30 09:38:56;;;;;;;4.77;3.53;;;;;;;;;;5012444;28;20876;-50
2021/12/30 09:41:22;;;;;;;4.03;3.10;;;;;;;;;;5012359;28;20430;-50
2021/12/30 09:43:48;;;;;;;3.93;3.60;;;;;;;;;;5012305;28;20887;-50
2021/12/30 09:46:16;;;;;;;4.13;3.53;;;;;;;;;;5012381;28;20407;-50
2021/12/30 09:48:43;;;;;;;3.57;3.27;;;;;;;;;;5012021;28;20782;-51
2021/12/30 09:51:09;;;;;;;4.33;3.63;;;;;;;;;;5011534;28;20410;-52
2021/12/30 09:53:35;;;;;;;4.13;3.70;;;;;;;;;;5012293;28;20950;-50
2021/12/30 09:56:01;;;;;;;5.40;4.00;;;;;;;;;;5012320;28;20406;-50
2021/12/30 09:58:29;;;;;;;5.03;4.03;;;;;;;;;;5010777;28;20582;-51
2021/12/30 10:00:55;;;;;;;5.97;4.00;;;;;;;;;;5011104;28;20407;-51
2021/12/30 10:03:21;;;;;;;3.67;3.37;;;;;;;;;;5012175;28;20775;-51
2021/12/30 10:05:47;;;;;;;4.87;4.10;;;;;;;;;;5012373;28;20801;-51
2021/12/30 10:08:18;;;;;;;3.83;2.90;;;;;;;;;;5011777;28;20436;-51
2021/12/30 10:10:45;;;;;;;11.03;3.07;;;;;;;;;;5012120;28;20407;-50
2021/12/30 10:13:15;;;;;;;3.00;2.80;;;;;;;;;;5026480;28;20463;-51
2021/12/30 10:15:42;;;;;;;3.60;3.00;;;;;;;;;;5031532;28;20910;-51
2021/12/30 10:18:08;;;;;;;4.60;2.80;;;;;;;;;;5031583;28;20457;-50
2021/12/30 10:20:37;;;;;;;2.50;2.30;;;;;;;;;;5014525;28;20414;-50
2021/12/30 10:23:09;;;;;;;5.57;2.53;;;;;;;;;;5011926;28;20486;-51
2021/12/30 10:25:37;;;;;;;3.30;2.37;;;;;;;;;;5011727;28;20902;-50
2021/12/30 10:28:31;;;;;;;5.03;2.80;;;;;;;;;;5011538;28;20802;-50
2021/12/30 10:31:14;;;;;;;3.93;2.40;;;;;;;;;;5009055;28;20415;-51
2021/12/30 10:34:04;;;;;;;2.90;2.30;;;;;;;;;;5011896;28;20446;-52
2021/12/30 10:36:30;;;;;;;2.40;2.20;;;;;;;;;;5011328;28;20430;-52
2021/12/30 10:39:13;;;;;;;2.90;2.30;;;;;;;;;;5011761;28;20959;-51
2021/12/30 10:41:39;;;;;;;2.13;2.03;;;;;;;;;;5011620;28;20512;-51
2021/12/30 10:44:06;;;;;;;2.33;2.13;;;;;;;;;;5011664;28;20493;-51
2021/12/30 10:46:32;;;;;;;2.83;2.07;;;;;;;;;;5011356;28;20403;-51
2021/12/30 10:49:00;;;;;;;2.80;2.40;;;;;;;;;;5011588;28;20802;-52
2021/12/30 10:51:43;;;;;;;4.60;3.03;;;;;;;;;;5011721;28;20399;-50
2021/12/30 10:54:09;;;;;;;3.90;2.37;;;;;;;;;;5011644;28;20453;-51
2021/12/30 10:56:36;;;;;;;3.23;2.20;;;;;;;;;;5011269;28;20404;-51
2021/12/30 10:59:11;;;;;;;3.80;2.10;;;;;;;;;;5011497;28;20885;-52
2021/12/30 11:01:42;;;;;;;2.40;2.23;;;;;;;;;;5012797;28;20489;-50
2021/12/30 11:04:08;;;;;;;3.80;2.27;;;;;;;;;;5015244;28;20403;-53
2021/12/30 11:06:35;;;;;;;3.93;2.43;;;;;;;;;;5015032;28;20370;-52
2021/12/30 11:09:23;;;;;;;2.50;2.30;;;;;;;;;;5015100;28;20427;-52
2021/12/30 11:12:00;;;;;;;2.10;2.00;;;;;;;;;;5002137;28;20430;-51
2021/12/30 11:14:30;;;;;;;2.90;2.60;;;;;;;;;;5015084;28;20920;-51
2021/12/30 11:17:05;;;;;;;2.30;2.10;;;;;;;;;;5014607;28;21022;-51
2021/12/30 11:19:34;;;;;;;2.57;2.10;;;;;;;;;;5015068;28;20430;-51
2021/12/30 11:22:00;;;;;;;4.20;2.07;;;;;;;;;;5014837;28;20382;-52
2021/12/30 11:24:27;;;;;;;5.10;2.47;;;;;;;;;;5014888;28;20396;-51
2021/12/30 11:26:54;;;;;;;2.00;1.80;;;;;;;;;;5014522;28;20382;-51
2021/12/30 11:29:20;;;;;;;2.60;2.40;;;;;;;;;;5015210;28;20414;-50
2021/12/30 11:31:47;;;;;;;5.90;2.43;;;;;;;;;;5014807;28;20389;-52
2021/12/30 11:34:13;;;;;;;2.53;2.33;;;;;;;;;;5007268;28;20547;-53
2021/12/30 11:36:39;;;;;;;2.60;2.40;;;;;;;;;;5014212;28;20442;-51
2021/12/30 11:39:12;;;;;;;3.60;2.70;;;;;;;;;;5014473;28;20929;-51
2021/12/30 11:41:39;;;;;;;4.10;2.60;;;;;;;;;;5014541;28;20442;-51
2021/12/30 11:44:06;;;;;;;4.33;3.07;;;;;;;;;;5014556;28;20518;-51
2021/12/30 11:46:38;;;;;;;3.23;2.70;;;;;;;;;;5014095;28;20556;-50
2021/12/30 11:49:05;;;;;;;5.97;2.90;;;;;;;;;;5014145;28;20418;-51
2021/12/30 11:51:51;;;;;;;5.30;3.20;;;;;;;;;;5014336;28;20434;-51
2021/12/30 11:54:35;;;;;;;5.77;2.73;;;;;;;;;;5014233;28;20454;-51
2021/12/30 11:57:20;;;;;;;3.90;2.57;;;;;;;;;;5013668;28;20504;-50
2021/12/30 11:59:46;;;;;;;5.23;3.40;;;;;;;;;;5014250;28;20372;-51
2021/12/30 12:02:33;;;;;;;4.90;3.10;;;;;;;;;;5014083;28;20382;-51
2021/12/30 12:04:59;;;;;;;3.70;3.40;;;;;;;;;;5014099;28;20403;-51
2021/12/30 12:07:25;;;;;;;5.13;3.00;;;;;;;;;;5013698;28;20485;-51
2021/12/30 12:09:51;;;;;;;4.37;3.97;;;;;;;;;;5013926;28;20501;-52
2021/12/30 12:12:32;;;;;;;3.13;2.83;;;;;;;;;;5013815;28;20454;-51
2021/12/30 12:15:00;;;;;;;3.03;2.83;;;;;;;;;;5013429;28;20393;-53
2021/12/30 12:17:31;;;;;;;2.73;2.53;;;;;;;;;;5013456;28;20472;-52
2021/12/30 12:19:57;;;;;;;3.67;2.90;;;;;;;;;;5013799;28;20477;-50
2021/12/30 12:22:24;;;;;;;4.60;3.27;;;;;;;;;;5013675;28;20430;-50
2021/12/30 12:25:11;;;;;;;4.13;2.50;;;;;;;;;;5013652;28;20391;-53
2021/12/30 12:27:39;;;;;;;4.47;3.00;;;;;;;;;;5012948;28;20448;-51
2021/12/30 12:30:06;;;;;;;3.53;3.23;;;;;;;;;;5013485;28;20414;-52
2021/12/30 12:32:35;;;;;;;6.03;3.03;;;;;;;;;;5013225;28;20781;-52
2021/12/30 12:35:05;;;;;;;5.67;3.50;;;;;;;;;;5013349;28;20425;-52
2021/12/30 12:37:36;;;;;;;3.47;3.27;;;;;;;;;;5013079;28;20971;-50
2021/12/30 12:40:11;;;;;;;4.20;3.07;;;;;;;;;;5013071;28;20916;-51
2021/12/30 12:42:58;;;;;;;3.50;2.73;;;;;;;;;;5013801;28;20399;-53
2021/12/30 12:45:32;;;;;;;5.47;3.60;;;;;;;;;;5012965;28;20414;-53
2021/12/30 12:48:22;;;;;;;4.17;2.90;;;;;;;;;;5012717;28;20420;-50
2021/12/30 12:50:51;;;;;;;5.63;3.63;;;;;;;;;;5013276;28;20945;-51
2021/12/30 12:53:20;;;;;;;5.37;3.23;;;;;;;;;;5012949;28;20406;-51
2021/12/30 12:55:46;;;;;;;8.30;3.33;;;;;;;;;;5012609;28;20402;-51
2021/12/30 12:58:12;;;;;;;5.00;3.27;;;;;;;;;;5012444;28;20458;-52
2021/12/30 13:00:39;;;;;;;4.90;4.00;;;;;;;;;;5012860;28;20763;-52
2021/12/30 13:03:05;;;;;;;7.20;3.53;;;;;;;;;;5012884;28;20413;-53
2021/12/30 13:05:31;;;;;;;4.93;3.73;;;;;;;;;;5010443;28;20410;-53
2021/12/30 13:07:57;;;;;;;4.60;2.97;;;;;;;;;;5012349;28;20433;-52
2021/12/30 13:10:23;;;;;;;5.67;3.90;;;;;;;;;;5012831;28;20939;-51
2021/12/30 13:12:49;;;;;;;3.67;3.37;;;;;;;;;;5012883;28;20449;-51
2021/12/30 13:15:16;;;;;;;6.20;4.10;;;;;;;;;;5012794;28;20441;-51
2021/12/30 13:17:44;;;;;;;7.47;3.40;;;;;;;;;;5012461;28;20466;-53
2021/12/30 13:20:10;;;;;;;3.67;3.37;;;;;;;;;;5012659;28;20482;-51
2021/12/30 13:22:36;;;;;;;4.43;3.17;;;;;;;;;;5012645;28;20442;-51
2021/12/30 13:25:03;;;;;;;6.57;4.00;;;;;;;;;;5012520;28;20415;-51
2021/12/30 13:27:40;;;;;;;4.30;3.07;;;;;;;;;;5012303;28;20442;-53
2021/12/30 13:30:13;;;;;;;5.00;3.20;;;;;;;;;;5012578;28;20777;-51
2021/12/30 13:32:43;;;;;;;7.57;3.20;;;;;;;;;;5012556;28;20891;-51
2021/12/30 13:35:14;;;;;;;7.27;3.13;;;;;;;;;;5012268;28;20387;-51
2021/12/30 13:37:40;;;;;;;4.63;2.93;;;;;;;;;;5011934;28;20540;-51
2021/12/30 13:40:27;;;;;;;3.50;3.00;;;;;;;;;;5012192;28;20973;-52
2021/12/30 13:42:54;;;;;;;4.23;3.37;;;;;;;;;;5011698;28;20509;-52
2021/12/30 13:45:33;;;;;;;4.40;3.87;;;;;;;;;;5012338;28;20465;-52
2021/12/30 13:48:05;;;;;;;5.27;3.83;;;;;;;;;;5012161;28;20836;-52
2021/12/30 13:50:32;;;;;;;6.90;2.93;;;;;;;;;;5012284;28;20410;-51
2021/12/30 13:53:00;;;;;;;3.60;3.30;;;;;;;;;;5012266;28;20813;-51
2021/12/30 13:55:27;;;;;;;4.97;2.97;;;;;;;;;;5012007;28;20412;-51
2021/12/30 13:58:05;;;;;;;3.83;3.37;;;;;;;;;;5011855;28;20542;-53
2021/12/30 14:00:34;;;;;;;3.57;3.17;;;;;;;;;;5012098;28;20826;-51
2021/12/30 14:03:11;;;;;;;6.30;3.23;;;;;;;;;;5012174;28;20399;-51
2021/12/30 14:05:37;;;;;;;6.67;2.80;;;;;;;;;;5012218;28;20449;-51
2021/12/30 14:08:04;;;;;;;6.73;3.20;;;;;;;;;;5011765;28;20427;-51
2021/12/30 14:11:03;;;;;;;5.20;3.07;;;;;;;;;;5012009;28;20432;-52
2021/12/30 14:13:38;;;;;;;3.40;2.50;;;;;;;;;;4979038;28;20415;-50
2021/12/30 14:16:05;;;;;;;4.77;2.90;;;;;;;;;;5011989;28;20442;-53
2021/12/30 14:18:32;;;;;;;6.70;2.90;;;;;;;;;;5011629;28;20477;-51
2021/12/30 14:20:59;;;;;;;5.43;3.17;;;;;;;;;;5011918;28;20953;-50
2021/12/30 14:23:29;;;;;;;6.43;3.40;;;;;;;;;;5011050;28;20433;-51
2021/12/30 14:25:55;;;;;;;3.10;2.77;;;;;;;;;;5011590;28;20428;-50
2021/12/30 14:28:22;;;;;;;3.67;2.70;;;;;;;;;;5011481;28;20859;-50
2021/12/30 14:30:49;;;;;;;4.43;4.03;;;;;;;;;;5011965;28;20499;-51
2021/12/30 14:33:24;;;;;;;5.47;3.00;;;;;;;;;;5011088;28;20841;-51
2021/12/30 14:36:07;;;;;;;5.30;2.87;;;;;;;;;;5011424;28;20410;-51
2021/12/30 14:38:33;;;;;;;2.93;2.63;;;;;;;;;;5013797;28;20472;-51
2021/12/30 14:41:07;;;;;;;2.60;2.40;;;;;;;;;;5015075;28;20433;-51
2021/12/30 14:43:33;;;;;;;4.13;2.40;;;;;;;;;;5015746;28;20444;-51
2021/12/30 14:46:11;;;;;;;3.97;3.20;;;;;;;;;;5015585;28;20855;-52